Terminal Aerodrome Forecast
Issued by NWS Sterling, VA

Home | Current Version | Previous Version | Text Only | Print | Product List | Glossary On
Versions: 1 2 3 4 5 6 7 8 9 10 11 12 13 14 15
000
FTUS41 KLWX 022329
TAFMRB
TAF
KMRB 022329Z 0300/0324 30007KT P6SM SKC
     FM031600 14005KT 4SM -SN OVC050
     FM031800 13005KT 1 1/2SM -FZRA BR OVC015
     FM032100 15006KT 1 1/2SM -FZRA BR OVC007=

USA.gov is the U.S. government's official web portal to all federal, state and local government web resources and services.